Time;durP1;ratioP1;P1;durP2;ratioP2;P2;SDS_P1;SDS_P2;PMS_P1;PMS_P2;Temp;Humidity;BMP_temperature;BMP_pressure;BME280_temperature;BME280_humidity;BME280_pressure;Samples;Min_cycle;Max_cycle;Signal;HPM_P1;HPM_P2
2023/04/03 00:01:38;;;;;;;9.00;3.72;;;;;;;2.26;74.00;99991.84;10338377;28;20124;-80
2023/04/03 00:06:38;;;;;;;16.67;3.92;;;;;;;2.36;74.67;100004.22;10337746;28;20081;-80
2023/04/03 00:11:39;;;;;;;9.48;3.97;;;;;;;2.18;74.75;99954.94;10343532;28;20038;-80
2023/04/03 00:16:40;;;;;;;8.38;3.95;;;;;;;2.54;74.60;100007.13;10342306;28;20058;-80
2023/04/03 00:21:41;;;;;;;12.82;4.47;;;;;;;2.53;74.24;100011.56;10337648;28;20129;-80
2023/04/03 00:26:41;;;;;;;10.95;4.32;;;;;;;2.17;74.77;99945.44;10337311;28;20068;-80
2023/04/03 00:31:42;;;;;;;7.53;3.35;;;;;;;2.39;74.72;99989.06;10336757;28;20035;-80
2023/04/03 00:36:43;;;;;;;10.02;3.83;;;;;;;1.84;74.45;99917.53;10337356;28;20104;-80
2023/04/03 00:41:44;;;;;;;8.13;3.50;;;;;;;1.91;74.44;99926.56;10336378;28;20552;-81
2023/04/03 00:46:44;;;;;;;9.05;4.25;;;;;;;2.23;74.82;99980.78;10359690;28;20140;-80
2023/04/03 00:51:45;;;;;;;7.60;3.25;;;;;;;2.36;74.60;100001.59;10340569;28;20506;-80
2023/04/03 00:56:46;;;;;;;10.95;4.53;;;;;;;2.32;74.73;100014.13;10335970;28;20062;-80
2023/04/03 01:01:48;;;;;;;13.60;4.53;;;;;;;2.25;75.93;100018.19;10376479;28;20091;-80
2023/04/03 01:06:49;;;;;;;10.20;3.33;;;;;;;1.88;75.06;99975.72;10375782;28;20045;-80
2023/04/03 01:11:50;;;;;;;18.35;3.25;;;;;;;2.15;75.05;100017.25;10374380;28;20049;-80
2023/04/03 01:16:53;;;;;;;48.17;7.20;;;;;;;2.20;76.09;100023.78;10356091;28;20478;-79
2023/04/03 01:22:18;;;;;;;7.97;3.80;;;;;;;2.15;76.65;100018.06;10335633;28;20048;-80
2023/04/03 01:27:18;;;;;;;6.55;3.30;;;;;;;1.85;74.76;99996.94;10335740;28;20501;-79
2023/04/03 01:32:19;;;;;;;8.15;3.80;;;;;;;1.86;75.11;99998.63;10334439;28;20042;-80
2023/04/03 01:37:20;;;;;;;7.72;3.65;;;;;;;2.01;75.19;100026.22;10334756;28;20061;-80
2023/04/03 01:42:21;;;;;;;7.00;3.25;;;;;;;1.81;75.48;100007.66;10334444;28;20065;-80
2023/04/03 01:47:22;;;;;;;8.68;3.72;;;;;;;1.93;75.40;100036.47;10334166;28;20038;-79
2023/04/03 01:52:23;;;;;;;7.75;3.63;;;;;;;1.95;75.74;100021.47;10334493;28;20052;-80
2023/04/03 01:57:25;;;;;;;4.95;3.30;;;;;;;1.87;75.41;100047.41;10334271;28;20058;-80
2023/04/03 02:02:25;;;;;;;8.98;3.60;;;;;;;1.85;76.15;100038.84;10347680;28;20042;-80
2023/04/03 02:07:27;;;;;;;6.45;3.25;;;;;;;1.77;76.25;100011.47;10332976;28;20034;-78
2023/04/03 02:12:27;;;;;;;11.48;3.70;;;;;;;1.95;76.02;100052.91;10338298;28;20042;-82
2023/04/03 02:17:28;;;;;;;22.90;6.10;;;;;;;1.89;76.75;100045.53;10349831;28;20077;-83
2023/04/03 02:22:29;;;;;;;17.92;4.22;;;;;;;1.76;76.33;100037.75;10332379;28;20190;-82
2023/04/03 02:27:31;;;;;;;7.03;3.70;;;;;;;1.79;76.63;100040.16;10333205;28;20034;-82
2023/04/03 02:32:32;;;;;;;10.15;4.05;;;;;;;1.75;76.45;100046.59;10332966;28;20039;-83
2023/04/03 02:37:33;;;;;;;13.88;3.40;;;;;;;1.64;76.31;100046.56;10331708;28;20418;-83
2023/04/03 02:42:34;;;;;;;7.25;3.20;;;;;;;1.52;76.60;100050.97;10360919;28;20508;-84
2023/04/03 02:47:34;;;;;;;7.45;3.20;;;;;;;0.91;76.33;99968.31;10372373;28;20525;-82
2023/04/03 02:52:35;;;;;;;11.60;3.88;;;;;;;1.36;76.90;100059.97;10363772;28;20084;-80
2023/04/03 02:57:36;;;;;;;9.57;4.22;;;;;;;1.59;76.77;100060.03;10325586;28;20066;-82
2023/04/03 03:02:37;;;;;;;15.15;4.88;;;;;;;1.24;77.17;99974.56;10325044;28;20049;-82
2023/04/03 03:07:37;;;;;;;17.55;5.05;;;;;;;1.63;76.50;99959.34;10325344;28;20046;-82
2023/04/03 03:12:38;;;;;;;12.63;3.95;;;;;;;3.00;74.89;100082.94;10327770;28;20049;-82
2023/04/03 03:17:39;;;;;;;7.65;4.28;;;;;;;3.19;73.68;100048.94;10333580;28;20566;-81
2023/04/03 03:22:40;;;;;;;12.98;3.80;;;;;;;3.53;72.62;100053.16;10336255;28;20410;-79
2023/04/03 03:27:40;;;;;;;8.05;3.20;;;;;;;3.91;71.86;100080.59;10338903;28;20038;-79
2023/04/03 03:32:41;;;;;;;7.68;3.65;;;;;;;4.04;72.04;100081.22;10302444;28;20119;-84
2023/04/03 03:37:42;;;;;;;12.75;4.25;;;;;;;4.19;72.16;100081.66;10328719;28;20421;-84
2023/04/03 03:42:42;;;;;;;7.60;4.68;;;;;;;4.73;71.83;100093.56;10379053;28;20092;-83
2023/04/03 03:47:43;;;;;;;7.53;4.20;;;;;;;5.31;70.32;100067.22;10378903;28;20042;-78
2023/04/03 03:52:44;;;;;;;7.85;4.63;;;;;;;5.13;70.59;100064.47;10378669;28;20049;-81
2023/04/03 03:57:45;;;;;;;9.25;4.85;;;;;;;5.94;70.17;100078.06;10378813;28;20058;-79
2023/04/03 04:02:46;;;;;;;10.13;4.40;;;;;;;6.79;68.26;100081.34;10379228;28;20457;-77
2023/04/03 04:07:47;;;;;;;8.48;4.22;;;;;;;7.67;67.16;100078.75;10378610;28;20133;-78
2023/04/03 04:12:49;;;;;;;8.65;4.32;;;;;;;8.43;65.47;100077.16;10377828;28;20121;-79
2023/04/03 04:17:49;;;;;;;8.07;4.50;;;;;;;8.55;64.23;100000.91;10378206;28;20114;-75
2023/04/03 04:22:50;;;;;;;7.95;4.18;;;;;;;9.34;62.99;100061.22;10377747;28;20092;-75
2023/04/03 04:27:51;;;;;;;7.95;4.60;;;;;;;9.64;61.79;100008.47;10377039;28;20038;-80
2023/04/03 04:32:52;;;;;;;10.75;4.95;;;;;;;9.72;61.17;100018.22;10377126;28;20111;-84
2023/04/03 04:37:53;;;;;;;8.93;4.50;;;;;;;10.06;60.32;100037.34;10376518;28;20448;-77
2023/04/03 04:42:53;;;;;;;11.73;5.13;;;;;;;10.31;59.09;100053.19;10359452;28;20047;-85
2023/04/03 04:47:55;;;;;;;7.43;4.53;;;;;;;10.47;57.46;100058.44;10335973;28;20038;-82
2023/04/03 04:52:56;;;;;;;7.40;4.25;;;;;;;10.24;57.39;100053.03;10336470;28;20042;-84
2023/04/03 04:57:57;;;;;;;14.98;4.93;;;;;;;9.76;58.12;100023.03;10336338;28;20515;-86
2023/04/03 05:02:58;;;;;;;12.48;5.18;;;;;;;9.84;58.17;100051.34;10336457;28;20038;-86
2023/04/03 05:07:59;;;;;;;11.73;4.32;;;;;;;10.44;57.74;100057.94;10335166;28;20064;-85
2023/04/03 05:13:00;;;;;;;11.55;5.28;;;;;;;10.58;57.06;100024.50;10335127;28;20069;-85
2023/04/03 05:18:00;;;;;;;8.23;5.05;;;;;;;10.87;56.80;100074.28;10349872;28;20557;-85
2023/04/03 05:23:01;;;;;;;10.02;4.35;;;;;;;10.43;57.33;100021.75;10334838;28;20038;-87
2023/04/03 05:28:02;;;;;;;9.15;4.13;;;;;;;10.23;57.77;100024.84;10334459;28;20050;-88
2023/04/03 05:33:03;;;;;;;14.88;5.20;;;;;;;10.69;57.35;100074.56;10334848;28;20049;-86
2023/04/03 05:38:04;;;;;;;11.35;4.10;;;;;;;11.15;56.51;100072.75;10333025;28;20129;-83
2023/04/03 05:43:04;;;;;;;7.68;3.90;;;;;;;11.25;55.32;100021.16;10334081;28;20478;-83
2023/04/03 05:48:05;;;;;;;6.43;3.95;;;;;;;11.77;54.71;100017.66;10333814;28;20048;-83
2023/04/03 05:53:06;;;;;;;6.35;3.65;;;;;;;12.52;53.52;100070.66;10333463;28;20140;-84
2023/04/03 05:58:07;;;;;;;11.27;4.25;;;;;;;12.84;53.07;100089.06;10334088;28;20090;-84
2023/04/03 06:03:08;;;;;;;7.70;4.10;;;;;;;12.79;52.79;100021.13;10333579;28;20414;-84
2023/04/03 06:08:08;;;;;;;6.88;3.92;;;;;;;13.66;51.39;100077.91;10333317;28;20045;-84
2023/04/03 06:13:09;;;;;;;5.60;3.78;;;;;;;13.67;50.47;100013.66;10333283;28;20478;-84
2023/04/03 06:18:10;;;;;;;9.20;4.70;;;;;;;13.95;49.99;100007.44;10333129;28;20585;-84
2023/04/03 06:23:11;;;;;;;8.63;3.92;;;;;;;14.64;50.36;100075.16;10332572;28;20077;-83
2023/04/03 06:28:12;;;;;;;8.07;3.95;;;;;;;14.93;49.66;100090.88;10333140;28;20145;-84
2023/04/03 06:33:13;;;;;;;6.97;3.42;;;;;;;15.31;49.04;100071.53;10331977;28;20046;-84
2023/04/03 06:38:13;;;;;;;6.88;3.22;;;;;;;15.52;48.30;100031.22;10331857;28;20042;-83
2023/04/03 06:43:14;;;;;;;8.35;3.10;;;;;;;15.63;47.09;100031.59;10332275;28;20141;-83
2023/04/03 06:48:15;;;;;;;6.75;2.47;;;;;;;16.23;46.75;100039.50;10332351;28;20054;-83
2023/04/03 06:53:16;;;;;;;7.40;2.70;;;;;;;16.44;45.50;100018.56;10331990;28;20142;-84
2023/04/03 06:58:17;;;;;;;7.03;3.30;;;;;;;16.51;45.20;100001.59;10331216;28;20069;-84
2023/04/03 07:03:19;;;;;;;5.47;3.10;;;;;;;17.36;44.84;100079.09;10331932;28;20105;-81
2023/04/03 07:08:20;;;;;;;10.40;3.40;;;;;;;17.57;44.63;100082.19;10332060;28;20042;-83
2023/04/03 07:13:21;;;;;;;8.10;3.75;;;;;;;17.20;44.09;100006.13;10332014;28;20050;-84
2023/04/03 07:18:22;;;;;;;8.73;3.40;;;;;;;17.56;44.15;100013.44;10331445;28;20097;-84
2023/04/03 07:23:23;;;;;;;5.78;3.50;;;;;;;17.65;43.38;100013.13;10330993;28;20042;-83
2023/04/03 07:28:24;;;;;;;7.32;3.53;;;;;;;18.28;43.13;100061.25;10331311;28;20422;-83
2023/04/03 07:33:25;;;;;;;12.40;5.00;;;;;;;17.84;42.55;99944.13;10346895;28;20053;-83
2023/04/03 07:38:26;;;;;;;8.30;4.00;;;;;;;18.73;41.71;100058.22;10330989;28;20145;-84
2023/04/03 07:43:26;;;;;;;10.20;4.10;;;;;;;18.84;41.24;100025.13;10331158;28;20049;-84
2023/04/03 07:48:27;;;;;;;5.78;3.25;;;;;;;18.96;39.91;100041.28;10331109;28;20077;-84
2023/04/03 07:53:28;;;;;;;6.72;4.10;;;;;;;19.02;39.61;100055.72;10331306;28;20121;-84
2023/04/03 07:58:29;;;;;;;12.48;3.65;;;;;;;18.98;38.49;100036.50;10331242;28;20141;-84
2023/04/03 08:03:30;;;;;;;9.20;4.07;;;;;;;18.85;38.24;99993.66;10337709;28;20084;-84
2023/04/03 08:08:32;;;;;;;12.00;4.82;;;;;;;19.26;38.23;100048.50;10337524;28;20069;-84
2023/04/03 08:13:34;;;;;;;5.93;3.20;;;;;;;19.82;37.50;100053.34;10337577;28;20042;-84
2023/04/03 08:18:35;;;;;;;14.40;3.28;;;;;;;19.81;36.76;100032.03;10337765;28;20050;-84
2023/04/03 08:23:36;;;;;;;8.80;3.30;;;;;;;19.33;37.09;99971.94;10336864;28;20046;-85
2023/04/03 08:28:38;;;;;;;6.47;2.80;;;;;;;20.00;36.48;100055.09;10337924;28;20042;-84
2023/04/03 08:33:39;;;;;;;14.38;7.80;;;;;;;20.05;36.59;100036.31;10337914;28;20073;-86
2023/04/03 08:38:40;;;;;;;6.80;3.67;;;;;;;20.26;36.16;100028.66;10336605;28;20058;-86
2023/04/03 08:44:19;;;;;;;8.75;4.38;;;;;;;20.19;35.15;99974.00;10337357;28;20046;-85
2023/04/03 08:49:29;;;;;;;10.30;5.90;;;;;;;20.57;32.61;100034.66;10336492;28;20046;-86
2023/04/03 08:54:33;;;;;;;24.55;3.60;;;;;;;20.89;33.47;100045.78;10336639;28;20129;-86
2023/04/03 08:59:38;;;;;;;9.30;2.50;;;;;;;20.90;32.12;100045.53;10335547;28;20065;-85
2023/04/03 09:04:38;;;;;;;7.07;2.35;;;;;;;20.89;32.43;100030.41;10336051;28;20049;-86
2023/04/03 09:09:42;;;;;;;4.13;1.90;;;;;;;21.11;32.50;100021.56;10335662;28;20038;-86
2023/04/03 09:14:45;;;;;;;3.22;1.52;;;;;;;21.58;31.71;100038.28;10325908;28;20422;-86
2023/04/03 09:20:02;;;;;;;6.60;1.75;;;;;;;21.65;31.64;100027.28;10294947;28;20141;-86
2023/04/03 09:25:22;;;;;;;14.65;5.13;;;;;;;21.56;31.10;100042.28;10293626;28;20043;-86
2023/04/03 09:30:25;;;;;;;7.85;2.70;;;;;;;21.60;31.25;100046.16;10295679;28;20049;-85
2023/04/03 09:35:30;;;;;;;5.00;2.10;;;;;;;21.67;30.93;100044.09;10294289;28;20062;-86
2023/04/03 09:40:37;;;;;;;37.83;19.75;;;;;;;21.06;30.36;99910.75;10293762;28;20149;-85
2023/04/03 09:45:38;;;;;;;9.88;5.05;;;;;;;22.13;30.84;100022.25;10293557;28;20570;-86
2023/04/03 09:51:04;;;;;;;8.77;2.50;;;;;;;22.33;29.85;100014.38;10293398;28;20049;-85
2023/04/03 09:56:21;;;;;;;9.30;2.33;;;;;;;22.41;30.61;100008.53;10293910;28;20062;-84
2023/04/03 10:01:32;;;;;;;3.28;1.77;;;;;;;22.39;30.09;99982.78;10293727;28;20046;-84
2023/04/03 10:06:36;;;;;;;3.90;1.90;;;;;;;21.89;30.33;99917.81;10293484;28;20109;-85
2023/04/03 10:11:36;;;;;;;;;;;;;;;22.90;30.64;100002.22;10293115;28;20546;-85
2023/04/03 10:16:57;;;;;;;5.80;2.90;;;;;;;22.90;30.71;100004.94;10293188;28;19918;-86
2023/04/03 10:22:10;;;;;;;34.15;14.73;;;;;;;22.71;30.63;99994.50;10292070;28;20410;-85
2023/04/03 10:27:21;;;;;;;7.45;3.80;;;;;;;22.56;30.50;100007.88;10292561;28;20047;-85
2023/04/03 10:32:47;;;;;;;5.38;1.85;;;;;;;22.65;29.87;99989.28;10292812;28;20070;-85
2023/04/03 10:38:15;;;;;;;4.03;1.70;;;;;;;22.96;30.13;99984.97;10291924;28;20042;-85
2023/04/03 10:43:19;;;;;;;17.38;8.63;;;;;;;22.66;30.09;99980.91;10291751;28;20487;-85
2023/04/03 10:48:44;;;;;;;5.00;2.20;;;;;;;22.41;29.69;99899.47;10292353;28;20051;-83
2023/04/03 10:54:11;;;;;;;5.53;1.77;;;;;;;22.60;29.55;99916.13;10292014;28;20058;-85
2023/04/03 10:59:17;;;;;;;8.73;2.85;;;;;;;22.87;28.52;99978.38;10291950;28;20396;-85
2023/04/03 11:04:21;;;;;;;3.63;1.52;;;;;;;22.67;29.14;99917.53;10291867;28;20058;-85
2023/04/03 11:09:29;;;;;;;10.07;3.35;;;;;;;22.61;28.76;99915.06;10291346;28;20043;-83
2023/04/03 11:14:37;;;;;;;5.30;1.70;;;;;;;22.80;28.46;99975.88;10291302;28;20062;-84
2023/04/03 11:20:06;;;;;;;4.43;1.40;;;;;;;22.19;27.99;99899.50;10291486;28;20050;-85
2023/04/03 11:25:12;;;;;;;12.52;1.40;;;;;;;21.68;28.96;99840.25;10291856;28;20043;-83
2023/04/03 11:30:21;;;;;;;7.35;2.30;;;;;;;22.36;29.31;99954.34;10305802;28;20050;-85
2023/04/03 11:35:24;;;;;;;4.95;1.60;;;;;;;21.74;29.13;99920.34;10295001;28;20074;-85
2023/04/03 11:40:30;;;;;;;6.90;1.60;;;;;;;21.39;29.70;99907.22;10298382;28;20124;-86
2023/04/03 11:45:59;;;;;;;3.58;1.65;;;;;;;21.27;29.20;99939.72;10298858;28;20051;-86
2023/04/03 11:51:29;;;;;;;7.07;2.10;;;;;;;21.30;29.87;99955.44;10297459;28;20541;-85
2023/04/03 11:56:30;;;;;;;9.27;4.45;;;;;;;20.85;30.06;99898.81;10298180;28;20047;-85
2023/04/03 12:01:52;;;;;;;5.43;1.70;;;;;;;21.46;29.65;99940.28;10297634;28;20053;-85
2023/04/03 12:07:12;;;;;;;6.75;2.63;;;;;;;20.59;29.81;99835.56;10298044;28;20053;-85
2023/04/03 12:12:40;;;;;;;3.70;1.75;;;;;;;21.07;29.03;99890.81;10297223;28;20065;-85
2023/04/03 12:17:41;;;;;;;5.47;1.95;;;;;;;21.84;29.69;99971.06;10295465;28;20070;-85
2023/04/03 12:23:28;;;;;;;5.28;1.50;;;;;;;22.22;28.44;99972.88;10297433;28;20517;-85
2023/04/03 12:28:29;;;;;;;438.42;258.48;;;;;;;22.04;29.15;99970.47;10294664;28;20466;-85
2023/04/03 12:33:56;;;;;;;35.35;19.55;;;;;;;21.80;28.74;99978.00;10297300;28;20097;-85
2023/04/03 12:39:19;;;;;;;10.50;5.22;;;;;;;21.64;29.59;99974.31;10296280;28;20046;-85
2023/04/03 12:44:22;;;;;;;9.53;3.57;;;;;;;21.34;29.91;99985.47;10331268;28;20042;-73
2023/04/03 12:49:29;;;;;;;67.30;27.60;;;;;;;21.10;30.49;99996.44;10354222;28;20149;-74
2023/04/03 12:54:36;;;;;;;20.55;7.68;;;;;;;20.89;31.02;99975.59;10343157;28;20046;-75
2023/04/03 12:59:38;;;;;;;11.43;3.97;;;;;;;21.23;31.17;100005.28;10308840;28;20105;-74
2023/04/03 13:04:39;;;;;;;7.18;3.38;;;;;;;21.58;30.87;100005.84;10295493;28;20499;-74
2023/04/03 13:09:39;;;;;;;74.28;38.10;;;;;;;21.13;30.58;99923.03;10295268;28;20654;-74
2023/04/03 13:14:51;;;;;;;22.08;9.88;;;;;;;21.62;31.01;100001.56;10299001;28;20069;-73
2023/04/03 13:19:52;;;;;;;8.68;3.17;;;;;;;21.37;31.24;99949.88;10365959;28;20077;-74
2023/04/03 13:24:54;;;;;;;15.68;6.22;;;;;;;21.73;31.36;100031.47;10360317;28;20133;-73
2023/04/03 13:29:58;;;;;;;11.68;4.35;;;;;;;21.58;31.69;100034.75;10352438;28;20046;-73
2023/04/03 13:35:00;;;;;;;28.60;11.98;;;;;;;21.14;32.32;100021.09;10353784;28;20438;-73
2023/04/03 13:40:10;;;;;;;25.77;12.02;;;;;;;21.08;32.26;100041.78;10359771;28;20093;-73
2023/04/03 13:45:19;;;;;;;19.92;8.32;;;;;;;20.94;32.17;100053.97;10350809;28;20461;-73
2023/04/03 13:50:25;;;;;;;18.23;8.55;;;;;;;20.19;32.85;99990.19;10374970;28;20125;-73
2023/04/03 13:55:29;;;;;;;21.52;9.60;;;;;;;20.44;33.53;100054.63;10374391;28;20064;-73
2023/04/03 14:00:39;;;;;;;33.00;14.23;;;;;;;20.37;33.90;100078.22;10355261;28;20048;-73
2023/04/03 14:05:39;;;;;;;16.73;5.25;;;;;;;20.01;34.02;100053.19;10341257;28;20110;-72
2023/04/03 14:10:41;;;;;;;39.72;10.10;;;;;;;20.07;34.20;100103.47;10340698;28;20132;-73
2023/04/03 14:15:43;;;;;;;14.95;5.10;;;;;;;19.88;34.72;100100.09;10371774;28;20062;-73
2023/04/03 14:20:44;;;;;;;24.80;7.85;;;;;;;19.71;35.00;100113.47;10332143;28;20050;-73
2023/04/03 14:25:46;;;;;;;14.20;2.42;;;;;;;19.32;35.34;100093.34;10331170;28;20042;-73
2023/04/03 14:30:49;;;;;;;31.75;10.07;;;;;;;19.30;35.86;100119.72;10330845;28;20050;-73
2023/04/03 14:35:50;;;;;;;28.35;9.05;;;;;;;19.04;36.12;100086.75;10336595;28;20527;-73
2023/04/03 14:40:53;;;;;;;21.13;5.10;;;;;;;18.93;36.77;100099.13;10349125;28;20065;-73
2023/04/03 14:45:54;;;;;;;22.30;6.80;;;;;;;18.87;37.26;100109.97;10347525;28;20193;-73
2023/04/03 14:50:55;;;;;;;20.23;5.00;;;;;;;18.62;38.00;100100.13;10370415;28;20124;-73
2023/04/03 14:55:56;;;;;;;24.27;6.53;;;;;;;18.50;38.52;100122.63;10370157;28;20428;-73
2023/04/03 15:00:57;;;;;;;31.13;6.20;;;;;;;18.28;38.99;100112.34;10355865;28;20195;-73
2023/04/03 15:05:59;;;;;;;15.05;6.10;;;;;;;18.28;39.60;100131.16;10371969;28;20524;-73
2023/04/03 15:11:00;;;;;;;10.88;2.03;;;;;;;18.17;40.01;100140.78;10372071;28;20490;-73
2023/04/03 15:16:01;;;;;;;9.35;2.08;;;;;;;18.08;40.31;100135.91;10352215;28;20034;-73
2023/04/03 15:21:23;;;;;;;7.53;1.55;;;;;;;18.01;40.85;100144.06;10337972;28;20124;-76
2023/04/03 15:26:25;;;;;;;18.00;4.95;;;;;;;17.38;41.12;100072.47;10365966;28;20041;-73
2023/04/03 15:31:27;;;;;;;25.02;10.05;;;;;;;17.56;41.08;100133.47;10347063;28;20141;-78
2023/04/03 15:36:28;;;;;;;28.15;9.35;;;;;;;17.53;41.52;100133.91;10326023;28;20061;-84
2023/04/03 15:41:28;;;;;;;23.98;7.53;;;;;;;17.29;41.68;100116.72;10328962;28;20050;-84
2023/04/03 15:46:29;;;;;;;16.38;4.88;;;;;;;17.50;42.01;100170.06;10353843;28;20054;-82
2023/04/03 15:51:30;;;;;;;10.98;2.58;;;;;;;17.39;42.37;100176.13;10339355;28;20050;-81
2023/04/03 15:56:31;;;;;;;14.60;5.13;;;;;;;17.10;43.26;100159.56;10334387;28;20117;-78
2023/04/03 16:01:32;;;;;;;14.23;3.10;;;;;;;17.12;43.88;100186.22;10333345;28;20041;-87
2023/04/03 16:06:33;;;;;;;15.98;3.03;;;;;;;16.97;44.77;100188.34;10353959;28;20046;-81
2023/04/03 16:11:35;;;;;;;11.57;3.85;;;;;;;16.40;45.14;100118.41;10353015;28;20034;-79
2023/04/03 16:16:36;;;;;;;27.35;9.90;;;;;;;16.55;45.03;100166.41;10349435;28;20037;-81
2023/04/03 16:21:37;;;;;;;32.05;10.98;;;;;;;16.60;45.01;100196.94;10368936;28;20042;-80
2023/04/03 16:26:38;;;;;;;12.00;3.90;;;;;;;16.28;44.95;100163.81;10347486;28;21549;-83
2023/04/03 16:31:39;;;;;;;11.82;2.78;;;;;;;16.31;44.90;100187.50;10356140;28;20038;-82
2023/04/03 16:36:40;;;;;;;7.25;2.38;;;;;;;15.64;44.97;100098.31;10337945;28;20081;-81
2023/04/03 16:41:41;;;;;;;19.67;4.25;;;;;;;16.13;45.18;100181.97;10336962;28;20073;-81
2023/04/03 16:46:41;;;;;;;13.57;3.08;;;;;;;15.30;45.88;100059.22;10336718;28;20043;-82
2023/04/03 16:51:42;;;;;;;9.73;2.20;;;;;;;15.70;46.15;100155.59;10329096;28;20054;-81
2023/04/03 16:56:43;;;;;;;15.25;2.60;;;;;;;15.92;46.46;100210.63;10335943;28;20514;-81
2023/04/03 17:01:44;;;;;;;17.88;7.13;;;;;;;15.82;46.85;100230.81;10336022;28;20045;-83
2023/04/03 17:06:45;;;;;;;9.35;3.35;;;;;;;15.81;46.91;100246.06;10335140;28;20049;-82
2023/04/03 17:11:46;;;;;;;7.72;2.13;;;;;;;15.24;47.17;100172.41;10335111;28;20054;-83
2023/04/03 17:16:46;;;;;;;9.85;2.00;;;;;;;15.65;47.40;100255.28;10335797;28;20042;-82
2023/04/03 17:21:47;;;;;;;11.20;2.05;;;;;;;15.52;47.55;100240.03;10335860;28;20042;-84
2023/04/03 17:26:48;;;;;;;6.43;1.70;;;;;;;15.47;47.77;100255.03;10334174;28;20069;-82
2023/04/03 17:31:49;;;;;;;18.65;5.10;;;;;;;15.14;47.81;100212.94;10347981;28;20037;-82
2023/04/03 17:36:50;;;;;;;22.77;6.13;;;;;;;15.26;47.80;100237.28;10342531;28;20056;-82
2023/04/03 17:41:50;;;;;;;9.00;2.67;;;;;;;15.35;47.37;100249.44;10376062;28;20136;-83
2023/04/03 17:46:51;;;;;;;8.27;2.22;;;;;;;15.32;47.19;100241.00;10370481;28;20049;-80
2023/04/03 17:51:52;;;;;;;16.35;3.13;;;;;;;15.49;47.67;100272.53;10356516;28;20133;-80
2023/04/03 17:56:53;;;;;;;8.43;2.92;;;;;;;15.46;48.16;100267.56;10354419;28;20148;-80
2023/04/03 18:01:55;;;;;;;10.80;2.10;;;;;;;14.12;47.96;100080.88;10375416;28;20496;-81
2023/04/03 18:06:56;;;;;;;12.13;2.45;;;;;;;15.04;47.77;100210.63;10373613;28;20416;-80
2023/04/03 18:11:59;;;;;;;19.40;2.33;;;;;;;15.51;47.94;100270.47;10373839;28;20209;-81
2023/04/03 18:17:00;;;;;;;8.23;2.63;;;;;;;15.46;48.28;100282.81;10374128;28;20077;-80
2023/04/03 18:22:08;;;;;;;9.23;2.10;;;;;;;15.35;49.57;100284.25;10373803;28;20145;-80
2023/04/03 18:27:13;;;;;;;10.68;2.22;;;;;;;14.70;50.30;100203.50;10373628;28;20437;-81
2023/04/03 18:32:16;;;;;;;7.40;1.90;;;;;;;15.20;50.22;100294.28;10372592;28;20037;-81
2023/04/03 18:37:17;;;;;;;7.78;1.88;;;;;;;15.10;50.17;100289.28;10372568;28;20144;-81
2023/04/03 18:42:22;;;;;;;11.77;2.00;;;;;;;14.90;51.36;100277.63;10372938;28;20052;-81
2023/04/03 18:47:22;;;;;;;9.23;1.98;;;;;;;14.58;52.08;100269.25;10372917;28;20080;-82
2023/04/03 18:52:24;;;;;;;11.43;2.25;;;;;;;14.23;52.95;100246.97;10371304;28;20092;-85
2023/04/03 18:57:25;;;;;;;6.05;2.17;;;;;;;14.03;54.41;100274.34;10372424;28;20532;-83
2023/04/03 19:02:26;;;;;;;10.05;2.58;;;;;;;13.88;56.22;100297.63;10370930;28;20042;-82
2023/04/03 19:07:27;;;;;;;12.32;2.80;;;;;;;13.51;57.99;100288.00;10371835;28;20056;-82
2023/04/03 19:12:28;;;;;;;12.40;2.85;;;;;;;13.48;59.26;100322.03;10350903;28;20038;-81
2023/04/03 19:17:29;;;;;;;9.05;3.50;;;;;;;13.24;61.26;100314.34;10363555;28;20046;-82
2023/04/03 19:22:30;;;;;;;8.15;3.20;;;;;;;12.95;63.64;100315.16;10372172;28;20054;-82
2023/04/03 19:27:30;;;;;;;5.95;3.22;;;;;;;12.89;64.56;100343.41;10372060;28;20837;-82
2023/04/03 19:32:31;;;;;;;7.35;4.05;;;;;;;12.59;66.45;100337.19;10371977;28;20037;-82
2023/04/03 19:37:32;;;;;;;6.35;4.00;;;;;;;12.46;67.52;100339.66;10372030;28;20092;-82
2023/04/03 19:42:35;;;;;;;12.65;4.68;;;;;;;11.92;68.52;100281.19;10370153;28;20493;-81
2023/04/03 19:47:36;;;;;;;12.35;4.50;;;;;;;12.20;69.25;100350.69;10339314;28;20089;-81
2023/04/03 19:52:37;;;;;;;9.15;4.07;;;;;;;11.94;70.35;100327.94;10330497;28;20034;-82
2023/04/03 19:57:38;;;;;;;9.25;4.13;;;;;;;12.00;70.60;100331.72;10335922;28;20458;-82
2023/04/03 20:02:39;;;;;;;12.18;4.28;;;;;;;12.21;70.02;100353.19;10322221;28;20097;-81
2023/04/03 20:07:40;;;;;;;13.07;3.75;;;;;;;11.85;69.56;100297.88;10298135;28;20050;-81
2023/04/03 20:12:41;;;;;;;9.45;4.20;;;;;;;12.21;69.61;100369.19;10297937;28;20050;-81
2023/04/03 20:17:43;;;;;;;12.73;3.50;;;;;;;12.21;69.26;100368.34;10298219;28;20038;-81
2023/04/03 20:22:43;;;;;;;17.60;4.35;;;;;;;12.10;69.58;100356.25;10297115;28;20042;-82
2023/04/03 20:27:44;;;;;;;14.18;4.10;;;;;;;12.07;69.82;100344.13;10297128;28;20042;-82
2023/04/03 20:32:45;;;;;;;8.32;3.88;;;;;;;11.68;70.03;100293.63;10296343;28;20043;-81
2023/04/03 20:37:46;;;;;;;12.13;4.10;;;;;;;11.93;70.90;100347.56;10344326;28;20093;-80
2023/04/03 20:42:46;;;;;;;16.65;5.68;;;;;;;11.74;71.16;100351.47;10337804;28;20050;-81
2023/04/03 20:47:50;;;;;;;15.45;5.00;;;;;;;11.54;71.58;100352.91;10336813;28;20050;-81
2023/04/03 20:52:51;;;;;;;17.23;6.57;;;;;;;11.39;71.68;100377.56;10335488;28;20434;-81
2023/04/03 20:57:57;;;;;;;23.20;7.80;;;;;;;11.18;72.27;100370.16;10336967;28;20059;-81
2023/04/03 21:03:00;;;;;;;18.17;6.60;;;;;;;10.61;72.23;100313.69;10335723;28;20136;-81
2023/04/03 21:08:38;;;;;;;16.77;7.55;;;;;;;10.95;75.55;100388.69;10335300;28;20144;-81
2023/04/03 21:14:17;;;;;;;11.52;6.55;;;;;;;10.52;76.65;100390.72;10335407;28;20129;-81
2023/04/03 21:19:20;;;;;;;8.70;4.68;;;;;;;9.63;76.37;100305.66;10335099;28;20387;-80
2023/04/03 21:24:22;;;;;;;10.30;4.25;;;;;;;9.94;75.29;100375.72;10335574;28;20038;-80
2023/04/03 21:29:23;;;;;;;10.93;4.03;;;;;;;9.98;74.89;100405.41;10350128;28;20042;-80
2023/04/03 21:34:29;;;;;;;17.52;5.60;;;;;;;9.93;77.64;100397.94;10337426;28;20042;-80
2023/04/03 21:39:30;;;;;;;28.92;11.00;;;;;;;9.32;75.55;100320.34;10343357;28;20421;-80
2023/04/03 21:44:31;;;;;;;17.88;7.28;;;;;;;9.52;76.20;100363.34;10332886;28;20050;-80
2023/04/03 21:49:31;;;;;;;16.23;6.78;;;;;;;9.31;76.66;100368.22;10334331;28;20038;-80
2023/04/03 21:54:32;;;;;;;17.60;7.82;;;;;;;8.94;77.02;100340.22;10334438;28;20486;-80
2023/04/03 21:59:33;;;;;;;18.45;7.38;;;;;;;8.99;76.50;100364.41;10349115;28;20050;-81
2023/04/03 22:04:34;;;;;;;16.35;9.07;;;;;;;9.07;76.53;100393.63;10333212;28;20502;-81
2023/04/03 22:09:35;;;;;;;13.80;8.55;;;;;;;8.91;76.54;100388.22;10333650;28;20069;-80
2023/04/03 22:14:36;;;;;;;18.60;8.70;;;;;;;8.62;76.57;100362.88;10333097;28;20030;-80
2023/04/03 22:19:37;;;;;;;13.40;5.75;;;;;;;8.77;76.85;100394.09;10332759;28;20108;-81
2023/04/03 22:24:38;;;;;;;10.20;5.13;;;;;;;8.62;77.35;100384.06;10340049;28;20409;-80
2023/04/03 22:29:39;;;;;;;29.67;16.33;;;;;;;8.54;78.22;100407.00;10335390;28;20046;-80
2023/04/03 22:34:40;;;;;;;29.58;12.75;;;;;;;7.69;78.32;100290.13;10333370;28;20058;-80
2023/04/03 22:39:41;;;;;;;30.55;9.80;;;;;;;7.85;78.09;100314.06;10332211;28;20082;-80
2023/04/03 22:44:42;;;;;;;23.45;11.00;;;;;;;8.04;78.06;100381.03;10331896;28;20046;-81
2023/04/03 22:49:42;;;;;;;32.20;12.90;;;;;;;8.07;78.09;100380.72;10331605;28;20437;-80
2023/04/03 22:54:43;;;;;;;21.80;10.93;;;;;;;8.14;77.19;100421.50;10331801;28;20046;-80
2023/04/03 22:59:44;;;;;;;19.45;9.63;;;;;;;7.73;77.81;100379.56;10332666;28;20089;-80
2023/04/03 23:04:45;;;;;;;18.45;8.43;;;;;;;7.67;78.42;100381.97;10330097;28;20517;-81
2023/04/03 23:09:46;;;;;;;13.82;6.97;;;;;;;7.67;78.53;100390.75;10331263;28;20049;-80
2023/04/03 23:14:47;;;;;;;23.50;9.30;;;;;;;7.89;78.64;100436.25;10332377;28;20514;-80